createdAt,value
2019-02-22T00:02:56.570Z,9.64
2019-02-22T00:07:58.776Z,9.63
2019-02-22T00:13:00.785Z,9.58
2019-02-22T00:18:02.942Z,9.59
2019-02-22T00:23:07.953Z,9.66
2019-02-22T00:28:10.331Z,9.70
2019-02-22T00:33:12.367Z,9.66
2019-02-22T00:38:15.291Z,9.60
2019-02-22T00:43:18.534Z,9.60
2019-02-22T00:48:23.487Z,9.54
2019-02-22T00:53:25.832Z,9.53
2019-02-22T00:58:29.816Z,9.61
2019-02-22T01:03:33.804Z,9.62
2019-02-22T01:08:38.100Z,9.52
2019-02-22T01:13:42.094Z,9.46
2019-02-22T01:18:44.549Z,9.50
2019-02-22T01:23:46.892Z,9.51
2019-02-22T01:28:48.885Z,9.47
2019-02-22T01:33:50.936Z,9.60
2019-02-22T01:38:55.696Z,9.56
2019-02-22T01:44:00.809Z,9.51
2019-02-22T01:49:02.882Z,9.77
2019-02-22T01:54:04.925Z,9.62
2019-02-22T01:59:07.287Z,9.42
2019-02-22T02:04:09.568Z,9.72
2019-02-22T02:09:11.624Z,9.51
2019-02-22T02:14:13.835Z,9.45
2019-02-22T02:19:16.200Z,9.43
2019-02-22T02:24:19.542Z,9.36
2019-02-22T02:29:21.657Z,9.35
2019-02-22T02:34:23.769Z,9.41
2019-02-22T02:39:25.819Z,9.37
2019-02-22T02:44:27.906Z,9.31
2019-02-22T02:49:29.923Z,9.35
2019-02-22T02:54:31.948Z,9.52
2019-02-22T02:59:34.010Z,9.41
2019-02-22T03:04:36.027Z,9.42
2019-02-22T03:09:38.075Z,9.38
2019-02-22T03:14:40.135Z,9.31
2019-02-22T03:19:42.231Z,9.27
2019-02-22T03:24:44.263Z,9.24
2019-02-22T03:29:46.350Z,9.23
2019-02-22T03:34:49.525Z,9.24
2019-02-22T03:39:51.865Z,9.15
2019-02-22T03:44:53.876Z,9.28
2019-02-22T03:49:57.303Z,9.29
2019-02-22T03:55:00.439Z,9.27
2019-02-22T04:00:07.215Z,9.48
2019-02-22T04:05:10.452Z,9.39
2019-02-22T04:10:13.162Z,9.15
2019-02-22T04:15:17.143Z,9.23
2019-02-22T04:20:19.233Z,9.17
2019-02-22T04:25:21.260Z,9.40
2019-02-22T04:30:23.501Z,9.22
2019-02-22T04:35:27.778Z,9.16
2019-02-22T04:40:29.929Z,9.17
2019-02-22T04:45:31.998Z,9.31
2019-02-22T04:50:34.018Z,9.06
2019-02-22T04:55:36.028Z,9.22
2019-02-22T05:00:39.704Z,9.28
2019-02-22T05:05:42.940Z,9.28
2019-02-22T05:10:44.997Z,9.15
2019-02-22T05:15:47.023Z,8.99
2019-02-22T05:20:49.274Z,9.28
2019-02-22T05:25:51.330Z,9.11
2019-02-22T05:30:53.697Z,8.94
2019-02-22T05:35:56.078Z,9.07
2019-02-22T05:40:58.359Z,9.21
2019-02-22T05:46:00.403Z,9.17
2019-02-22T05:51:04.881Z,9.20
2019-02-22T05:56:07.064Z,9.16
2019-02-22T06:01:09.128Z,9.24
2019-02-22T06:06:15.840Z,9.26
2019-02-22T06:11:18.188Z,9.15
2019-02-22T06:16:20.225Z,9.15
2019-02-22T06:21:22.857Z,9.15
2019-02-22T06:26:25.342Z,9.28
2019-02-22T06:31:27.459Z,9.16
2019-02-22T06:36:32.102Z,9.17
2019-02-22T06:41:36.022Z,9.21
2019-02-22T06:46:39.260Z,9.19
2019-02-22T06:51:41.515Z,9.19
2019-02-22T06:56:43.573Z,9.19
2019-02-22T07:01:49.890Z,9.36
2019-02-22T07:06:52.759Z,9.25
2019-02-22T07:12:08.028Z,9.22
2019-02-22T07:17:10.038Z,9.28
2019-02-22T07:22:12.621Z,9.33
2019-02-22T07:27:14.746Z,9.33
2019-02-22T07:32:18.040Z,9.42
2019-02-22T07:37:20.069Z,9.45
2019-02-22T07:42:22.189Z,9.44
2019-02-22T07:47:24.207Z,9.69
2019-02-22T07:52:26.774Z,9.75
2019-02-22T07:57:30.686Z,9.63
2019-02-22T08:02:33.578Z,9.76
2019-02-22T08:07:35.775Z,9.89
2019-02-22T08:12:37.868Z,10.08
2019-02-22T08:17:40.798Z,10.31
2019-02-22T08:22:42.990Z,10.16
2019-02-22T08:27:53.923Z,10.25
2019-02-22T08:32:54.397Z,10.33
2019-02-22T08:37:56.475Z,10.27
2019-02-22T08:42:58.594Z,10.28
2019-02-22T08:48:00.641Z,10.36
2019-02-22T08:53:03.063Z,10.38
2019-02-22T08:58:07.447Z,10.43
2019-02-22T09:03:10.839Z,10.64
2019-02-22T09:08:12.908Z,10.67
2019-02-22T09:13:14.918Z,10.11
2019-02-22T09:18:16.965Z,10.64
2019-02-22T09:23:19.021Z,10.64
2019-02-22T09:28:21.050Z,10.86
2019-02-22T09:33:25.127Z,11.09
2019-02-22T09:38:29.005Z,10.76
2019-02-22T09:43:31.301Z,10.90
2019-02-22T09:48:34.902Z,10.92
2019-02-22T09:53:37.169Z,11.45
2019-02-22T09:58:39.184Z,11.54
2019-02-22T10:03:41.341Z,11.18
2019-02-22T10:08:43.429Z,11.21
2019-02-22T10:13:45.585Z,11.94
2019-02-22T10:18:49.755Z,12.09
2019-02-22T10:23:51.778Z,11.69
2019-02-22T10:28:54.273Z,11.69
2019-02-22T10:33:56.842Z,11.61
2019-02-22T10:38:59.162Z,11.90
2019-02-22T10:44:01.462Z,11.62
2019-02-22T10:49:03.795Z,12.28
2019-02-22T10:54:09.492Z,12.13
2019-02-22T10:59:11.528Z,12.29
2019-02-22T11:04:13.552Z,12.25
2019-02-22T11:09:16.340Z,12.17
2019-02-22T11:14:28.455Z,12.09
2019-02-22T11:19:22.614Z,12.66
2019-02-22T11:24:26.912Z,12.66
2019-02-22T11:29:28.988Z,12.68
2019-02-22T11:34:31.114Z,12.55
2019-02-22T11:39:33.131Z,11.96
2019-02-22T11:44:43.030Z,12.52
2019-02-22T11:49:48.039Z,12.90
2019-02-22T11:54:53.541Z,13.13
2019-02-22T11:59:55.833Z,13.15
2019-02-22T12:05:06.871Z,13.11
2019-02-22T12:10:08.953Z,12.84
2019-02-22T12:15:18.764Z,13.35
2019-02-22T12:20:20.935Z,13.42
2019-02-22T12:25:22.971Z,12.87
2019-02-22T12:30:28.057Z,13.00
2019-02-22T12:35:32.412Z,12.45
2019-02-22T12:40:34.418Z,12.63
2019-02-22T12:45:36.433Z,12.90
2019-02-22T12:50:40.330Z,12.74
2019-02-22T12:55:42.411Z,12.88
2019-02-22T13:00:46.296Z,12.88
2019-02-22T13:05:48.318Z,12.66
2019-02-22T13:10:50.511Z,12.72
2019-02-22T13:15:54.947Z,12.67
2019-02-22T13:20:58.270Z,12.58
2019-02-22T13:26:00.271Z,12.84
2019-02-22T13:31:02.508Z,12.41
2019-02-22T13:36:06.533Z,12.71
2019-02-22T13:41:08.668Z,12.40
2019-02-22T13:46:10.743Z,12.40
2019-02-22T13:51:12.835Z,12.71
2019-02-22T13:56:15.140Z,12.41
2019-02-22T14:01:20.150Z,12.43
2019-02-22T14:06:22.158Z,12.32
2019-02-22T14:11:24.431Z,12.61
2019-02-22T14:16:26.487Z,12.67
2019-02-22T14:21:28.882Z,12.43
2019-02-22T14:26:33.640Z,12.39
2019-02-22T14:31:37.312Z,12.51
2019-02-22T14:36:39.492Z,12.53
2019-02-22T14:41:41.516Z,12.44
2019-02-22T14:46:48.064Z,12.47
2019-02-22T14:51:51.974Z,12.62
2019-02-22T14:56:54.002Z,12.37
2019-02-22T15:02:00.801Z,12.16
2019-02-22T15:07:04.942Z,12.21
2019-02-22T15:12:08.934Z,12.28
2019-02-22T15:17:29.186Z,12.34
2019-02-22T15:22:31.298Z,12.35
2019-02-22T15:27:33.306Z,12.29
2019-02-22T15:32:41.206Z,12.03
2019-02-22T15:37:43.625Z,12.22
2019-02-22T15:42:48.461Z,12.22
2019-02-22T15:47:52.047Z,12.34
2019-02-22T15:52:56.465Z,12.43
2019-02-22T15:57:58.613Z,12.26
2019-02-22T16:03:01.800Z,12.26
2019-02-22T16:08:04.035Z,12.17
2019-02-22T16:13:06.361Z,12.22
2019-02-22T16:18:10.662Z,12.18
2019-02-22T16:23:14.070Z,12.11
2019-02-22T16:28:16.261Z,12.05
2019-02-22T16:33:23.821Z,12.09
2019-02-22T16:38:25.867Z,12.10
2019-02-22T16:43:28.890Z,11.87
2019-02-22T16:48:34.918Z,11.75
2019-02-22T16:53:37.244Z,11.76
2019-02-22T16:58:40.759Z,11.78
2019-02-22T17:03:48.071Z,12.00
2019-02-22T17:08:50.059Z,11.73
2019-02-22T17:13:53.526Z,11.96
2019-02-22T17:18:56.894Z,11.96
2019-02-22T17:23:59.294Z,11.79
2019-02-22T17:29:05.389Z,11.79
2019-02-22T17:34:08.860Z,11.74
2019-02-22T17:39:13.533Z,11.73
2019-02-22T17:44:15.810Z,11.70
2019-02-22T17:49:36.857Z,11.61
2019-02-22T17:54:42.189Z,11.69
2019-02-22T17:59:44.250Z,11.80
2019-02-22T18:04:46.922Z,11.51
2019-02-22T18:09:49.006Z,11.50
2019-02-22T18:14:51.696Z,11.51
2019-02-22T18:19:56.823Z,11.49
2019-02-22T18:24:58.844Z,11.49
2019-02-22T18:30:01.013Z,11.53
2019-02-22T18:35:06.645Z,11.47
2019-02-22T18:40:12.830Z,11.30
2019-02-22T18:45:19.504Z,10.76
2019-02-22T18:50:25.190Z,10.76
2019-02-22T18:55:27.267Z,10.61
2019-02-22T19:00:29.538Z,10.55
2019-02-22T19:05:37.638Z,10.41
2019-02-22T19:10:39.679Z,10.19
2019-02-22T19:15:42.350Z,10.26
2019-02-22T19:20:44.375Z,10.14
2019-02-22T19:25:46.467Z,9.96
2019-02-22T19:30:48.719Z,9.83
2019-02-22T19:35:50.996Z,9.75
2019-02-22T19:40:53.018Z,9.66
2019-02-22T19:46:01.163Z,9.65
2019-02-22T19:51:05.193Z,9.52
2019-02-22T19:56:09.144Z,9.40
2019-02-22T20:01:11.743Z,9.26
2019-02-22T20:06:14.028Z,9.20
2019-02-22T20:11:16.100Z,9.05
2019-02-22T20:16:20.917Z,9.03
2019-02-22T20:21:23.244Z,8.77
2019-02-22T20:26:25.275Z,8.75
2019-02-22T20:31:29.959Z,8.60
2019-02-22T20:36:32.022Z,8.53
2019-02-22T20:41:34.062Z,8.53
2019-02-22T20:46:36.548Z,8.46
2019-02-22T20:51:38.633Z,8.38
2019-02-22T20:56:43.134Z,8.58
2019-02-22T21:01:47.101Z,8.72
2019-02-22T21:06:51.769Z,8.65
2019-02-22T21:11:58.440Z,8.45
2019-02-22T21:17:02.572Z,8.75
2019-02-22T21:22:09.966Z,8.77
2019-02-22T21:27:12.158Z,8.76
2019-02-22T21:32:14.330Z,8.72
2019-02-22T21:37:16.986Z,8.72
2019-02-22T21:42:20.356Z,8.69
2019-02-22T21:47:22.617Z,8.62
2019-02-22T21:52:25.380Z,8.64
2019-02-22T21:57:28.095Z,8.50
2019-02-22T22:02:32.511Z,8.53
2019-02-22T22:07:37.272Z,8.47
2019-02-22T22:12:43.326Z,8.21
2019-02-22T22:17:46.429Z,8.22
2019-02-22T22:22:48.663Z,8.28
2019-02-22T22:27:50.746Z,8.16
2019-02-22T22:32:52.896Z,7.98
2019-02-22T22:37:55.041Z,7.89
2019-02-22T22:42:57.116Z,7.88
2019-02-22T22:47:59.113Z,7.98
2019-02-22T22:53:01.415Z,7.83
2019-02-22T22:58:05.889Z,7.77
2019-02-22T23:03:08.161Z,7.73
2019-02-22T23:08:11.516Z,7.78
2019-02-22T23:13:23.644Z,7.84
2019-02-22T23:18:27.560Z,7.77
2019-02-22T23:23:30.516Z,7.80
2019-02-22T23:28:32.568Z,7.75
2019-02-22T23:33:39.920Z,7.73
2019-02-22T23:38:43.840Z,7.82
2019-02-22T23:43:46.140Z,7.61
2019-02-22T23:48:50.811Z,7.61
2019-02-22T23:53:56.573Z,7.67
2019-02-22T23:59:00.158Z,7.64
